x

Orange Beach - 44 Nm Se Of Mobile, Al (42012) Wave Buoy

8:50am - Mon 22nd Dec 2014 All times are CST. -6 hours from GMT.

  • Sig Wave height 2.3ft
  • Swell Direction
  • Peak Period 4s
  • Average Period 4s
  • Wind
    16mph, 18mph gusts
  • Sea Temp 71°f
  • Air Temp 69°f
  • Sea Pressure 1011.1mb
  • Orange Beach - 44 Nm Se Of Mobile, Al
  • Orange Beach - 44 Nm Se Of Mobile, Al

More Historic Weather Station data

Upgrade to MSW Pro to gain access to the past 30 days of data for over 8000 Wavebouys and Weather Stations around the globe.

Join Pro

Comparision Forecast

View Surf forecast
   
Mon 12/22 8:50am 2.5ft 4s 4s 16 18 mph 1011.1mb 71f 69f
7:50am 2.5ft 4s 4s 13 18 mph 1011.2mb 71f 68f
6:50am 3ft 4s 4s 18 25 mph 1010.5mb 71f 69f
5:50am 3ft 4s 4s 25 29 mph 1010.4mb 71f 67f
4:50am 2.5ft 4s 4s 20 22 mph 1011.1mb 71f 66f
3:50am 2.5ft 4s 4s 16 18 mph 1012.4mb 71f 66f
2:50am 2.5ft 4s 3s 16 20 mph 1012.4mb 71f 66f
1:50am 2.5ft 5s 4s 16 18 mph 1012.5mb 71f 67f
12:50am 2.5ft 5s 4s 13 16 mph 1013.9mb 71f 66f
Sun 12/21 11:50pm 2ft 5s 4s 16 18 mph 1013.5mb 71f 65f
10:50pm 2.5ft 5s 4s 13 16 mph 1014.4mb 70f 64f
9:50pm 2ft 5s 4s 13 18 mph 1014.2mb 70f 64f
8:50pm 2.5ft 4s 4s 13 16 mph 1014.5mb 70f 64f
7:50pm 2.5ft 4s 4s 13 18 mph 1015.3mb 70f 62f
6:50pm 2.5ft 3s 4s 16 20 mph 1015.3mb 70f 62f
5:50pm 2.5ft 5s 4s 16 18 mph 1015.6mb 70f 61f
4:50pm 2.5ft 6s 4s 16 20 mph 1015.2mb 70f 61f
3:50pm 2.5ft 6s 4s 18 20 mph 1015.1mb 70f 61f
2:50pm 2ft 6s 4s 16 20 mph 1015.3mb 70f 62f
1:50pm 2.5ft 5s 4s 9 11 mph 1015.5mb 70f 63f
12:50pm 2ft 6s 4s 7 9 mph 1016.3mb 70f 63f
11:50am 2.5ft 6s 4s 11 13 mph 1017.1mb 70f 62f
10:50am 2.5ft 6s 4s 11 16 mph 1018.2mb 69f 61f
9:50am 2.5ft 6s 4s 11 13 mph 1018.9mb 69f 60f
8:50am 2.5ft 5s 4s 13 18 mph 1018.5mb 69f 59f
7:50am 2.5ft 6s 4s 13 16 mph 1018.2mb 69f 58f
6:50am 2.5ft 6s 4s 16 20 mph 1018.2mb 69f 57f
5:50am 2.5ft 6s 4s 16 18 mph 1018.3mb 70f 57f
4:50am 3ft 6s 4s 13 18 mph 1018mb 70f 57f
3:50am 2.5ft 5s 4s 13 16 mph 1018.3mb 70f 56f
2:50am 3ft 6s 4s 13 18 mph 1018.7mb 70f 56f
1:50am 3ft 6s 4s 16 18 mph 1018.9mb 70f 56f
12:50am 3.5ft 6s 4s 18 20 mph 1018.8mb 70f 57f
Sat 12/20 11:50pm 3.5ft 6s 4s 18 20 mph 1018.7mb 69f 56f
10:50pm 3.5ft 5s 4s 18 22 mph 1019.1mb 69f 56f
9:50pm 3.5ft 5s 4s 20 25 mph 1018.9mb 69f 56f
8:50pm 3.5ft 6s 4s 22 27 mph 1018.6mb 69f 56f
7:50pm 3.5ft 6s 4s 20 27 mph 1018.7mb 69f 57f
6:50pm 3.5ft 6s 4s 18 22 mph 1018.7mb 69f 57f
5:50pm 3.5ft 6s 4s 20 22 mph 1018.2mb 69f 57f
4:50pm 3.5ft 6s 4s 20 25 mph 1017.7mb 69f 57f
3:50pm 3.5ft 6s 4s 18 22 mph 1017.4mb 69f 57f
2:50pm 3.5ft 6s 4s 20 22 mph 1017mb 69f 57f
1:50pm 3.5ft 5s 4s 18 22 mph 1017mb 69f 57f
12:50pm 3.5ft 6s 4s 18 22 mph 1017.6mb 68f 56f
11:50am 3.5ft 5s 4s 18 22 mph 1018.6mb 67f 56f
10:50am 3.5ft 6s 4s 20 25 mph 1019.4mb 65f 56f
9:50am 4ft 5s 4s 20 25 mph 1019.3mb 65f 55f
8:50am 3.5ft 5s 4s 22 27 mph 1018.9mb 65f 55f
7:50am 4ft 5s 4s 20 25 mph 1018.7mb 65f 56f
6:50am 3.5ft 4s 4s 27 31 mph 1018mb 65f 55f
5:50am 3.5ft 4s 4s 25 29 mph 1017.6mb 65f 54f
4:50am 3.5ft 5s 4s 22 27 mph 1017.2mb 65f 53f
3:50am 3.5ft 5s 4s 20 25 mph 1016.6mb 66f 56f
2:50am 3.5ft 5s 4s 20 22 mph 1016.4mb 66f 58f
1:50am 3.5ft 5s 4s 20 25 mph 1016.4mb 66f 59f
12:50am 3.5ft 5s 4s 20 25 mph 1016.7mb 66f 58f
Fri 12/19 11:50pm 3.5ft 5s 4s 20 25 mph 1017.4mb 66f 58f
10:50pm 3.5ft 4s 4s 20 25 mph 1017.8mb 66f 57f
9:50pm 3ft 5s 4s 22 27 mph 1018mb 67f 57f
8:50pm 3ft 4s 4s 22 27 mph 1018mb 67f 57f
7:50pm 3ft 4s 4s 20 22 mph 1018.4mb 67f 59f
6:50pm 2.5ft 4s 4s 20 22 mph 1018.3mb 67f 57f
5:50pm 2.5ft 4s 3s 18 22 mph 1018.3mb 67f 57f
4:50pm 2.5ft 4s 4s 18 22 mph 1018.3mb 68f 55f
3:50pm 2.5ft 4s 4s 20 22 mph 1017.7mb 68f 58f
2:50pm 2.5ft 4s 4s 16 18 mph 1016.9mb 68f 61f
1:50pm 2.5ft 4s 4s 18 20 mph 1016.7mb 68f 60f
12:50pm 2.5ft 4s 4s 18 22 mph 1017.4mb 68f 59f
11:50am 2.5ft 4s 4s 20 22 mph 1018.7mb 68f 57f
10:50am 2ft 4s 3s 22 25 mph 1020.5mb 68f 53f
9:50am 2.5ft 4s 4s 16 18 mph 1023mb 67f 53f
8:50am 2.5ft 4s 4s 16 18 mph 1020.5mb 67f 59f
7:50am 2.5ft 4s 3s 18 22 mph 1019.7mb 67f 59f
6:50am 2.5ft 4s 3s 18 20 mph 1019.2mb 67f 59f
5:50am 2ft 4s 3s 20 25 mph 1018.7mb 67f 59f
4:50am 1.6ft 3s 3s 16 20 mph 1018.4mb 67f 59f
3:50am 1.6ft 3s 3s 16
mph
1018.9mb 65f 59f
2:50am 1.3ft 3s 3s 16 20 mph 1019mb 65f 59f
1:50am 1ft 3s 3s 16 18 mph 1019.5mb 66f 60f
12:50am 0.7ft  -  5s 13 16 mph 1019.8mb 66f 61f
Thu 12/18 11:50pm 0.7ft  -  5s 7 9 mph 1020.6mb 66f 63f
10:50pm 0.7ft  -  5s 4 7 mph 1020.6mb 66f 63f
9:50pm 0.7ft  -  4s 7
mph
1020.5mb 66f 63f
8:50pm 0.7ft  -  4s 9
mph
1020.3mb 66f 62f
7:50pm 0.7ft  -  4s 4 7 mph 1020.3mb 66f 63f
6:50pm 0.7ft  -  4s 4 7 mph 1020.2mb 67f 62f
5:50pm 0.7ft  -  4s 7 9 mph 1019.5mb 67f 62f
4:50pm 0.7ft  -  4s 4 7 mph 1019.6mb 67f 62f